createdAt,value
2018-01-27T00:01:13.313Z,95.80
2018-01-27T00:03:40.464Z,96.00
2018-01-27T00:06:07.620Z,95.90
2018-01-27T00:08:34.574Z,96.00
2018-01-27T00:11:01.444Z,96.00
2018-01-27T00:13:28.576Z,95.90
2018-01-27T00:15:55.731Z,95.90
2018-01-27T00:18:22.480Z,95.70
2018-01-27T00:20:50.349Z,95.60
2018-01-27T00:23:17.154Z,95.80
2018-01-27T00:25:45.575Z,95.80
2018-01-27T00:28:13.148Z,95.70
2018-01-27T00:30:40.404Z,95.60
2018-01-27T00:33:08.584Z,95.40
2018-01-27T00:35:35.533Z,95.60
2018-01-27T00:38:02.386Z,95.60
2018-01-27T00:40:30.154Z,95.60
2018-01-27T00:42:58.436Z,95.70
2018-01-27T00:45:26.304Z,95.60
2018-01-27T00:47:54.079Z,95.60
2018-01-27T00:50:22.820Z,95.60
2018-01-27T00:52:50.853Z,95.60
2018-01-27T00:55:18.099Z,95.70
2018-01-27T00:57:45.564Z,95.70
2018-01-27T01:00:13.641Z,96.20
2018-01-27T01:02:41.514Z,96.40
2018-01-27T01:05:08.362Z,96.20
2018-01-27T01:07:37.089Z,96.80
2018-01-27T01:10:05.436Z,96.60
2018-01-27T01:12:34.862Z,96.60
2018-01-27T01:15:02.205Z,96.60
2018-01-27T01:17:29.902Z,96.70
2018-01-27T01:19:57.025Z,96.80
2018-01-27T01:22:23.749Z,96.80
2018-01-27T01:24:52.667Z,96.90
2018-01-27T01:27:19.412Z,97.00
2018-01-27T01:29:46.684Z,96.70
2018-01-27T01:32:14.215Z,96.50
2018-01-27T01:34:42.210Z,96.50
2018-01-27T01:37:09.264Z,96.60
2018-01-27T01:39:36.318Z,96.60
2018-01-27T01:42:03.062Z,96.90
2018-01-27T01:44:29.809Z,96.90
2018-01-27T01:46:56.772Z,96.90
2018-01-27T01:49:23.611Z,97.00
2018-01-27T01:51:50.969Z,97.10
2018-01-27T01:54:18.119Z,97.30
2018-01-27T01:56:44.870Z,97.40
2018-01-27T01:59:11.704Z,97.40
2018-01-27T02:01:39.491Z,97.90
2018-01-27T02:04:06.472Z,97.80
2018-01-27T02:06:33.290Z,97.90
2018-01-27T02:09:00.340Z,97.90
2018-01-27T02:11:27.496Z,97.90
2018-01-27T02:13:55.368Z,97.80
2018-01-27T02:16:22.220Z,97.90
2018-01-27T02:18:49.274Z,97.90
2018-01-27T02:21:17.229Z,97.80
2018-01-27T02:23:44.707Z,97.90
2018-01-27T02:26:11.969Z,97.90
2018-01-27T02:28:39.020Z,97.90
2018-01-27T02:31:06.787Z,97.80
2018-01-27T02:33:33.947Z,97.90
2018-01-27T02:36:00.933Z,97.80
2018-01-27T02:38:27.947Z,97.90
2018-01-27T02:40:54.899Z,97.90
2018-01-27T02:43:21.677Z,97.80
2018-01-27T02:45:48.571Z,97.90
2018-01-27T02:48:15.449Z,97.90
2018-01-27T02:50:42.906Z,98.00
2018-01-27T02:53:09.963Z,97.90
2018-01-27T02:55:37.218Z,97.90
2018-01-27T02:58:06.119Z,98.00
2018-01-27T03:00:33.780Z,98.00
2018-01-27T03:03:00.527Z,98.10
2018-01-27T03:05:27.582Z,98.00
2018-01-27T03:07:54.200Z,98.00
2018-01-27T03:10:23.121Z,98.20
2018-01-27T03:12:49.865Z,98.20
2018-01-27T03:15:23.471Z,98.10
2018-01-27T03:17:51.137Z,98.10
2018-01-27T03:20:18.291Z,98.10
2018-01-27T03:22:46.576Z,98.10
2018-01-27T03:25:13.409Z,98.10
2018-01-27T03:27:41.192Z,98.20
2018-01-27T03:30:08.448Z,98.10
2018-01-27T03:32:35.296Z,98.20
2018-01-27T03:35:01.941Z,98.40
2018-01-27T03:37:28.792Z,98.50
2018-01-27T03:39:55.846Z,98.70
2018-01-27T03:42:23.613Z,98.80
2018-01-27T03:44:50.461Z,98.80
2018-01-27T03:47:17.616Z,98.80
2018-01-27T03:49:47.187Z,98.80
2018-01-27T03:52:14.281Z,98.80
2018-01-27T03:54:41.848Z,98.90
2018-01-27T03:57:08.697Z,98.90
2018-01-27T03:59:36.337Z,98.90
2018-01-27T04:02:04.848Z,98.90
2018-01-27T04:04:32.209Z,98.90
2018-01-27T04:06:59.564Z,98.80
2018-01-27T04:09:27.545Z,98.80
2018-01-27T04:11:54.288Z,98.80
2018-01-27T04:14:21.036Z,99.00
2018-01-27T04:16:48.200Z,98.60
2018-01-27T04:19:15.655Z,98.70
2018-01-27T04:21:42.706Z,98.70
2018-01-27T04:24:09.455Z,98.40
2018-01-27T04:26:37.225Z,98.20
2018-01-27T04:29:04.382Z,98.20
2018-01-27T04:31:31.171Z,98.20
2018-01-27T04:33:58.080Z,98.30
2018-01-27T04:36:24.923Z,98.20
2018-01-27T04:38:51.673Z,98.20
2018-01-27T04:41:18.623Z,98.20
2018-01-27T04:43:45.651Z,98.00
2018-01-27T04:46:12.522Z,97.60
2018-01-27T04:48:39.576Z,97.60
2018-01-27T04:51:06.235Z,97.70
2018-01-27T04:53:33.073Z,97.50
2018-01-27T04:56:00.124Z,97.60
2018-01-27T04:58:27.074Z,97.70
2018-01-27T05:00:53.921Z,97.90
2018-01-27T05:03:21.795Z,98.00
2018-01-27T05:05:49.645Z,98.10
2018-01-27T05:08:17.741Z,98.10
2018-01-27T05:10:44.487Z,98.10
2018-01-27T05:13:11.541Z,98.30
2018-01-27T05:15:38.226Z,98.20
2018-01-27T05:18:05.139Z,98.20
2018-01-27T05:20:32.602Z,98.20
2018-01-27T05:22:59.654Z,98.20
2018-01-27T05:25:26.809Z,98.20
2018-01-27T05:27:53.659Z,98.20
2018-01-27T05:30:20.814Z,98.20
2018-01-27T05:32:47.666Z,98.30
2018-01-27T05:35:14.406Z,98.20
2018-01-27T05:37:41.241Z,98.10
2018-01-27T05:40:09.024Z,97.90
2018-01-27T05:42:36.696Z,97.70
2018-01-27T05:45:03.643Z,97.70
2018-01-27T05:47:30.683Z,97.40
2018-01-27T05:49:57.857Z,97.50
2018-01-27T05:52:24.805Z,97.10
2018-01-27T05:54:51.524Z,96.90
2018-01-27T05:57:19.322Z,96.60
2018-01-27T05:59:46.681Z,96.60
2018-01-27T06:02:14.346Z,96.60
2018-01-27T06:04:41.711Z,96.60
2018-01-27T06:07:08.455Z,96.30
2018-01-27T06:09:36.123Z,96.40
2018-01-27T06:12:03.381Z,96.60
2018-01-27T06:14:30.943Z,96.60
2018-01-27T06:16:57.694Z,96.80
2018-01-27T06:19:24.623Z,96.70
2018-01-27T06:21:52.517Z,96.60
2018-01-27T06:24:19.670Z,96.50
2018-01-27T06:26:47.030Z,96.40
2018-01-27T06:29:13.780Z,96.40
2018-01-27T06:31:40.625Z,96.50
2018-01-27T06:34:08.085Z,96.30
2018-01-27T06:36:34.934Z,96.30
2018-01-27T06:39:02.706Z,96.30
2018-01-27T06:41:29.551Z,96.40
2018-01-27T06:43:56.410Z,96.50
2018-01-27T06:46:24.173Z,96.70
2018-01-27T06:48:52.042Z,96.70
2018-01-27T06:51:19.303Z,96.90
2018-01-27T06:53:46.151Z,97.10
2018-01-27T06:56:14.226Z,97.70
2018-01-27T06:58:42.251Z,97.50
2018-01-27T07:01:10.684Z,97.60
2018-01-27T07:03:38.050Z,97.60
2018-01-27T07:06:04.896Z,97.80
2018-01-27T07:08:31.616Z,97.80
2018-01-27T07:10:59.721Z,97.80
2018-01-27T07:13:26.578Z,97.90
2018-01-27T07:15:53.725Z,97.80
2018-01-27T07:18:20.979Z,97.90
2018-01-27T07:20:47.941Z,98.00
2018-01-27T07:23:18.716Z,98.00
2018-01-27T07:25:46.663Z,98.00
2018-01-27T07:28:13.904Z,98.10
2018-01-27T07:30:40.803Z,98.20
2018-01-27T07:33:10.155Z,98.40
2018-01-27T07:35:36.860Z,98.40
2018-01-27T07:38:04.575Z,98.70
2018-01-27T07:40:32.747Z,98.60
2018-01-27T07:42:59.902Z,98.70
2018-01-27T07:45:26.570Z,98.80
2018-01-27T07:47:54.923Z,98.90
2018-01-27T07:50:22.498Z,98.90
2018-01-27T07:52:49.247Z,98.90
2018-01-27T07:55:15.994Z,98.90
2018-01-27T07:57:42.734Z,99.00
2018-01-27T08:00:09.586Z,98.80
2018-01-27T08:02:36.333Z,98.80
2018-01-27T08:05:03.331Z,98.70
2018-01-27T08:07:30.877Z,98.70
2018-01-27T08:09:58.619Z,98.60
2018-01-27T08:12:25.567Z,98.60
2018-01-27T08:14:52.823Z,98.50
2018-01-27T08:17:19.676Z,98.50
2018-01-27T08:19:46.711Z,98.50
2018-01-27T08:22:13.520Z,98.60
2018-01-27T08:24:41.241Z,98.70
2018-01-27T08:27:08.397Z,98.80
2018-01-27T08:29:36.100Z,98.90
2018-01-27T08:32:02.820Z,99.10
2018-01-27T08:34:32.789Z,98.80
2018-01-27T08:37:01.936Z,98.70
2018-01-27T08:39:30.522Z,98.90
2018-01-27T08:41:57.994Z,98.80
2018-01-27T08:44:25.854Z,98.90
2018-01-27T08:46:55.233Z,99.10
2018-01-27T08:49:22.731Z,99.30
2018-01-27T08:51:50.300Z,99.10
2018-01-27T08:54:17.145Z,99.10
2018-01-27T08:56:45.121Z,99.20
2018-01-27T08:59:12.312Z,99.20
2018-01-27T09:01:40.146Z,99.10
2018-01-27T09:04:07.911Z,99.10
2018-01-27T09:06:35.269Z,98.90
2018-01-27T09:09:04.704Z,98.50
2018-01-27T09:11:32.959Z,97.50
2018-01-27T09:14:00.348Z,97.10
2018-01-27T09:16:27.681Z,97.20
2018-01-27T09:18:55.347Z,96.60
2018-01-27T09:21:22.193Z,96.60
2018-01-27T09:23:49.351Z,96.70
2018-01-27T09:26:16.203Z,96.60
2018-01-27T09:28:43.156Z,96.40
2018-01-27T09:31:10.118Z,96.30
2018-01-27T09:33:37.462Z,96.30
2018-01-27T09:36:04.515Z,96.60
2018-01-27T09:38:31.366Z,96.60
2018-01-27T09:40:59.747Z,96.20
2018-01-27T09:43:26.626Z,96.10
2018-01-27T09:45:53.444Z,96.20
2018-01-27T09:48:20.704Z,96.30
2018-01-27T09:50:47.454Z,96.20
2018-01-27T09:53:14.197Z,96.00
2018-01-27T09:55:41.045Z,96.00
2018-01-27T09:58:08.820Z,96.40
2018-01-27T10:00:35.765Z,96.40
2018-01-27T10:03:02.619Z,95.60
2018-01-27T10:05:29.464Z,95.70
2018-01-27T10:07:56.348Z,95.10
2018-01-27T10:10:23.403Z,95.60
2018-01-27T10:12:50.597Z,95.30
2018-01-27T10:15:17.378Z,95.30
2018-01-27T10:17:44.350Z,95.60
2018-01-27T10:20:11.996Z,95.10
2018-01-27T10:22:39.261Z,95.10
2018-01-27T10:25:06.500Z,94.40
2018-01-27T10:27:33.671Z,94.30
2018-01-27T10:30:00.823Z,94.30
2018-01-27T10:32:27.770Z,94.40
2018-01-27T10:34:54.679Z,94.50
2018-01-27T10:37:21.767Z,94.30
2018-01-27T10:39:49.984Z,95.00
2018-01-27T10:42:17.724Z,94.60
2018-01-27T10:44:44.572Z,94.50
2018-01-27T10:47:12.643Z,94.40
2018-01-27T10:49:40.308Z,93.90
2018-01-27T10:52:07.364Z,94.00
2018-01-27T10:54:34.924Z,94.10
2018-01-27T10:57:02.297Z,94.30
2018-01-27T10:59:29.550Z,94.70
2018-01-27T11:01:57.321Z,95.00
2018-01-27T11:04:24.163Z,95.00
2018-01-27T11:06:51.016Z,95.20
2018-01-27T11:09:17.886Z,94.80
2018-01-27T11:11:44.822Z,94.80
2018-01-27T11:14:11.560Z,95.30
2018-01-27T11:16:39.125Z,94.90
2018-01-27T11:19:06.381Z,94.70
2018-01-27T11:21:33.205Z,95.40
2018-01-27T11:24:00.183Z,95.50
2018-01-27T11:26:27.140Z,96.00
2018-01-27T11:28:53.983Z,95.50
2018-01-27T11:31:21.453Z,95.30
2018-01-27T11:33:48.702Z,95.00
2018-01-27T11:36:15.447Z,95.50
2018-01-27T11:38:42.170Z,95.30
2018-01-27T11:41:09.859Z,95.30
2018-01-27T11:43:36.606Z,95.30
2018-01-27T11:46:03.458Z,95.50
2018-01-27T11:48:30.201Z,95.20
2018-01-27T11:50:57.053Z,94.80
2018-01-27T11:53:24.209Z,94.70
2018-01-27T11:55:51.363Z,94.70
2018-01-27T11:58:18.049Z,95.10
2018-01-27T12:00:44.751Z,94.70
2018-01-27T12:03:11.460Z,94.70
2018-01-27T12:05:38.142Z,94.90
2018-01-27T12:08:05.912Z,94.50
2018-01-27T12:10:33.173Z,94.20
2018-01-27T12:12:59.831Z,94.10
2018-01-27T12:15:26.501Z,94.20
2018-01-27T12:17:54.746Z,94.10
2018-01-27T12:20:21.460Z,94.10
2018-01-27T12:22:49.155Z,94.30
2018-01-27T12:25:16.205Z,94.30
2018-01-27T12:27:43.772Z,95.00
2018-01-27T12:30:10.581Z,94.60
2018-01-27T12:32:37.470Z,94.70
2018-01-27T12:35:05.953Z,94.60
2018-01-27T12:37:33.929Z,94.30
2018-01-27T12:40:00.965Z,94.30
2018-01-27T12:42:28.874Z,94.30
2018-01-27T12:44:55.547Z,94.30
2018-01-27T12:47:22.223Z,94.60
2018-01-27T12:50:16.488Z,94.50
2018-01-27T12:52:46.952Z,95.10
2018-01-27T12:55:14.108Z,95.00
2018-01-27T12:57:41.032Z,94.80
2018-01-27T13:00:08.396Z,94.30
2018-01-27T13:02:35.817Z,94.30
2018-01-27T13:05:02.934Z,94.20
2018-01-27T13:07:29.780Z,94.10
2018-01-27T13:09:58.264Z,94.10
2018-01-27T13:12:25.116Z,94.10
2018-01-27T13:14:51.783Z,94.40
2018-01-27T13:17:18.610Z,94.50
2018-01-27T13:19:45.663Z,94.40
2018-01-27T13:22:12.508Z,94.40
2018-01-27T13:24:39.335Z,94.50
2018-01-27T13:27:06.922Z,94.50
2018-01-27T13:29:33.770Z,94.50
2018-01-27T13:32:00.616Z,94.40
2018-01-27T13:34:27.365Z,94.50
2018-01-27T13:36:54.098Z,94.20
2018-01-27T13:39:20.988Z,94.10
2018-01-27T13:41:48.320Z,94.20
2018-01-27T13:44:17.232Z,94.90
2018-01-27T13:46:45.296Z,95.20
2018-01-27T13:49:12.038Z,94.80
2018-01-27T13:51:38.787Z,95.10
2018-01-27T13:54:05.541Z,94.70
2018-01-27T13:56:32.587Z,94.70
2018-01-27T13:58:59.540Z,94.70
2018-01-27T14:01:26.388Z,94.80
2018-01-27T14:03:53.135Z,94.50
2018-01-27T14:06:19.880Z,94.60
2018-01-27T14:08:46.739Z,95.20
2018-01-27T14:11:13.474Z,95.00
2018-01-27T14:13:40.525Z,95.40
2018-01-27T14:16:07.656Z,95.80
2018-01-27T14:18:35.041Z,96.30
2018-01-27T14:21:01.787Z,96.40
2018-01-27T14:23:28.533Z,96.30
2018-01-27T14:25:55.692Z,95.90
2018-01-27T14:28:22.744Z,95.90
2018-01-27T14:30:49.592Z,95.90
2018-01-27T14:33:16.336Z,95.90
2018-01-27T14:35:43.595Z,95.90
2018-01-27T14:38:10.676Z,96.00
2018-01-27T14:40:39.445Z,96.20
2018-01-27T14:43:06.190Z,96.20
2018-01-27T14:45:32.933Z,96.20
2018-01-27T14:47:59.786Z,96.30
2018-01-27T14:50:26.529Z,96.50
2018-01-27T14:52:53.253Z,96.70
2018-01-27T14:55:20.716Z,96.80
2018-01-27T14:57:47.471Z,96.70
2018-01-27T15:00:15.055Z,96.70
2018-01-27T15:02:41.900Z,96.70
2018-01-27T15:05:08.665Z,97.00
2018-01-27T15:07:42.348Z,97.00
2018-01-27T15:10:10.427Z,97.20
2018-01-27T15:12:37.481Z,97.30
2018-01-27T15:15:04.433Z,97.40
2018-01-27T15:17:31.179Z,97.40
2018-01-27T15:19:57.923Z,97.50
2018-01-27T15:22:24.669Z,97.50
2018-01-27T15:24:51.492Z,97.40
2018-01-27T15:27:19.185Z,97.70
2018-01-27T15:29:46.026Z,97.70
2018-01-27T15:32:13.523Z,97.80
2018-01-27T15:34:40.434Z,97.90
2018-01-27T15:37:07.507Z,97.90
2018-01-27T15:39:34.657Z,97.80
2018-01-27T15:42:01.709Z,97.80
2018-01-27T15:44:28.867Z,97.80
2018-01-27T15:46:55.615Z,97.90
2018-01-27T15:49:22.571Z,97.90
2018-01-27T15:51:49.526Z,97.90
2018-01-27T15:54:16.334Z,97.90
2018-01-27T15:56:43.084Z,97.90
2018-01-27T15:59:10.672Z,97.90
2018-01-27T16:01:37.680Z,97.80
2018-01-27T16:04:04.471Z,98.00
2018-01-27T16:06:31.552Z,97.90
2018-01-27T16:08:58.685Z,98.00
2018-01-27T16:11:25.532Z,98.00
2018-01-27T16:13:52.252Z,98.20
2018-01-27T16:16:19.737Z,98.10
2018-01-27T16:18:46.689Z,98.00
2018-01-27T16:21:14.254Z,97.90
2018-01-27T16:23:41.209Z,98.20
2018-01-27T16:26:08.363Z,98.20
2018-01-27T16:28:35.214Z,98.40
2018-01-27T16:31:02.059Z,98.30
2018-01-27T16:33:29.012Z,98.30
2018-01-27T16:35:55.860Z,98.30
2018-01-27T16:38:22.709Z,98.30
2018-01-27T16:40:49.451Z,98.30
2018-01-27T16:43:16.198Z,98.20
2018-01-27T16:45:43.048Z,98.20
2018-01-27T16:48:10.453Z,98.20
2018-01-27T16:50:37.155Z,98.90
2018-01-27T16:53:03.901Z,98.40
2018-01-27T16:55:30.649Z,98.40
2018-01-27T16:57:57.498Z,98.50
2018-01-27T17:00:24.244Z,98.60
2018-01-27T17:02:50.882Z,98.80
2018-01-27T17:05:17.607Z,98.70
2018-01-27T17:07:45.171Z,98.70
2018-01-27T17:10:12.660Z,98.60
2018-01-27T17:12:39.508Z,98.50
2018-01-27T17:15:06.256Z,98.70
2018-01-27T17:17:33.104Z,98.50
2018-01-27T17:19:59.932Z,98.60
2018-01-27T17:22:27.420Z,98.70
2018-01-27T17:24:54.265Z,98.60
2018-01-27T17:27:21.719Z,98.60
2018-01-27T17:29:48.680Z,98.70
2018-01-27T17:32:15.835Z,98.70
2018-01-27T17:34:43.397Z,98.70
2018-01-27T17:37:10.249Z,98.60
2018-01-27T17:39:37.094Z,98.60
2018-01-27T17:42:03.837Z,98.70
2018-01-27T17:44:30.586Z,98.60
2018-01-27T17:46:57.335Z,98.60
2018-01-27T17:49:24.389Z,98.70
2018-01-27T17:51:51.341Z,98.70
2018-01-27T17:54:18.292Z,98.60
2018-01-27T17:56:45.097Z,98.70
2018-01-27T17:59:18.762Z,98.80
2018-01-27T18:01:45.997Z,98.70
2018-01-27T18:04:12.896Z,98.60
2018-01-27T18:06:40.463Z,98.60
2018-01-27T18:09:07.189Z,98.60
2018-01-27T18:11:34.058Z,98.50
2018-01-27T18:14:01.598Z,98.60
2018-01-27T18:16:28.272Z,98.50
2018-01-27T18:18:55.041Z,98.50
2018-01-27T18:21:21.844Z,98.40
2018-01-27T18:23:49.362Z,98.50
2018-01-27T18:26:16.868Z,98.50
2018-01-27T18:28:43.893Z,98.50
2018-01-27T18:31:10.742Z,98.70
2018-01-27T18:33:37.587Z,98.90
2018-01-27T18:36:04.642Z,98.90
2018-01-27T18:38:31.493Z,98.80
2018-01-27T18:40:58.271Z,98.90
2018-01-27T18:43:24.942Z,98.90
2018-01-27T18:45:52.045Z,98.90
2018-01-27T18:48:19.605Z,98.90
2018-01-27T18:50:48.305Z,99.00
2018-01-27T18:53:15.632Z,99.20
2018-01-27T18:55:42.760Z,99.30
2018-01-27T18:58:09.659Z,99.40
2018-01-27T19:00:36.607Z,99.50
2018-01-27T19:03:04.076Z,99.30
2018-01-27T19:05:32.556Z,99.30
2018-01-27T19:07:59.916Z,99.30
2018-01-27T19:10:27.156Z,99.20
2018-01-27T19:12:53.976Z,99.20
2018-01-27T19:15:22.348Z,99.20
2018-01-27T19:17:50.942Z,99.00
2018-01-27T19:20:18.255Z,98.90
2018-01-27T19:22:44.931Z,99.10
2018-01-27T19:25:11.745Z,99.00
2018-01-27T19:27:38.910Z,99.00
2018-01-27T19:30:05.648Z,99.00
2018-01-27T19:32:33.213Z,99.20
2018-01-27T19:34:59.958Z,99.10
2018-01-27T19:37:26.810Z,99.20
2018-01-27T19:39:53.556Z,99.30
2018-01-27T19:42:20.511Z,99.30
2018-01-27T19:44:47.459Z,99.30
2018-01-27T19:47:14.201Z,99.20
2018-01-27T19:49:40.947Z,99.20
2018-01-27T19:52:07.705Z,99.40
2018-01-27T19:54:34.603Z,99.20
2018-01-27T19:57:01.600Z,99.20
2018-01-27T19:59:28.757Z,99.20
2018-01-27T20:01:55.503Z,99.00
2018-01-27T20:04:22.349Z,99.10
2018-01-27T20:06:49.198Z,99.10
2018-01-27T20:09:15.946Z,99.10
2018-01-27T20:11:42.795Z,99.20
2018-01-27T20:14:09.641Z,99.30
2018-01-27T20:16:36.317Z,99.20
2018-01-27T20:19:03.061Z,99.10
2018-01-27T20:21:29.979Z,99.50
2018-01-27T20:23:57.444Z,99.20
2018-01-27T20:26:24.191Z,99.10
2018-01-27T20:28:51.016Z,99.20
2018-01-27T20:31:18.605Z,99.30
2018-01-27T20:33:45.456Z,99.30
2018-01-27T20:36:12.303Z,99.20
2018-01-27T20:38:39.350Z,99.20
2018-01-27T20:41:05.995Z,99.20
2018-01-27T20:43:32.745Z,99.10
2018-01-27T20:45:59.592Z,99.20
2018-01-27T20:48:26.338Z,99.00
2018-01-27T20:50:53.086Z,99.00
2018-01-27T20:53:20.039Z,99.00
2018-01-27T20:55:47.209Z,99.00
2018-01-27T20:58:14.089Z,99.00
2018-01-27T21:00:41.147Z,98.80
2018-01-27T21:03:07.800Z,98.70
2018-01-27T21:05:35.352Z,98.60
2018-01-27T21:08:02.867Z,98.50
2018-01-27T21:10:29.821Z,98.60
2018-01-27T21:12:56.451Z,98.50
2018-01-27T21:15:23.208Z,98.50
2018-01-27T21:17:49.872Z,98.50
2018-01-27T21:20:16.704Z,98.60
2018-01-27T21:22:43.556Z,98.50
2018-01-27T21:25:10.503Z,98.40
2018-01-27T21:27:37.658Z,98.40
2018-01-27T21:30:05.326Z,98.50
2018-01-27T21:32:32.071Z,98.30
2018-01-27T21:34:58.920Z,98.40
2018-01-27T21:37:25.875Z,98.40
2018-01-27T21:39:53.048Z,98.10
2018-01-27T21:42:19.729Z,98.70
2018-01-27T21:44:47.236Z,98.50
2018-01-27T21:47:13.915Z,98.50
2018-01-27T21:49:40.652Z,98.60
2018-01-27T21:52:07.345Z,98.40
2018-01-27T21:54:34.077Z,98.40
2018-01-27T21:57:00.709Z,98.30
2018-01-27T21:59:27.543Z,98.30
2018-01-27T22:01:54.871Z,98.30
2018-01-27T22:04:27.548Z,98.30
2018-01-27T22:06:54.732Z,98.40
2018-01-27T22:09:22.305Z,98.70
2018-01-27T22:11:49.049Z,98.60
2018-01-27T22:14:15.739Z,98.70
2018-01-27T22:16:42.395Z,98.70
2018-01-27T22:19:09.895Z,98.90
2018-01-27T22:21:36.584Z,98.80
2018-01-27T22:24:04.024Z,99.00
2018-01-27T22:26:30.762Z,98.90
2018-01-27T22:28:57.468Z,98.90
2018-01-27T22:31:24.191Z,98.70
2018-01-27T22:33:51.784Z,99.00
2018-01-27T22:36:18.632Z,99.00
2018-01-27T22:38:45.686Z,98.90
2018-01-27T22:41:13.465Z,98.90
2018-01-27T22:43:40.984Z,98.90
2018-01-27T22:46:09.253Z,98.90
2018-01-27T22:48:36.189Z,98.80
2018-01-27T22:51:03.441Z,99.00
2018-01-27T22:53:30.898Z,98.90
2018-01-27T22:55:58.602Z,99.20
2018-01-27T22:58:26.013Z,98.90
2018-01-27T23:00:59.365Z,98.90
2018-01-27T23:03:27.040Z,99.00
2018-01-27T23:05:55.516Z,99.10
2018-01-27T23:08:23.251Z,99.00
2018-01-27T23:10:51.833Z,98.90
2018-01-27T23:13:19.294Z,98.90
2018-01-27T23:15:54.205Z,99.00
2018-01-27T23:18:21.938Z,99.00
2018-01-27T23:20:49.684Z,98.90
2018-01-27T23:23:16.768Z,98.90
2018-01-27T23:25:44.559Z,98.80
2018-01-27T23:28:11.452Z,98.80
2018-01-27T23:30:38.182Z,98.70
2018-01-27T23:33:04.801Z,98.80
2018-01-27T23:35:31.492Z,98.80
2018-01-27T23:37:58.277Z,98.80
2018-01-27T23:40:25.551Z,98.70
2018-01-27T23:42:52.405Z,98.70
2018-01-27T23:45:19.669Z,98.70
2018-01-27T23:47:47.223Z,98.70
2018-01-27T23:50:14.070Z,98.60
2018-01-27T23:52:42.107Z,98.60
2018-01-27T23:55:08.932Z,98.70
2018-01-27T23:57:36.295Z,98.60
